Time;durP1;ratioP1;P1;durP2;ratioP2;P2;SDS_P1;SDS_P2;PMS_P1;PMS_P2;Temp;Humidity;BMP_temperature;BMP_pressure;BME280_temperature;BME280_humidity;BME280_pressure;Samples;Min_cycle;Max_cycle;Signal;HPM_P1;HPM_P2
2021/12/20 00:01:06;;;;;;;12.35;8.25;;;;;;;;;;4807841;29;20047;-75
2021/12/20 00:03:34;;;;;;;15.32;11.32;;;;;;;;;;4795224;29;20458;-75
2021/12/20 00:06:02;;;;;;;19.77;12.75;;;;;;;;;;4801830;29;20046;-75
2021/12/20 00:08:29;;;;;;;18.88;12.05;;;;;;;;;;4800367;29;20051;-74
2021/12/20 00:10:58;;;;;;;17.02;11.43;;;;;;;;;;4801316;29;20070;-74
2021/12/20 00:13:26;;;;;;;18.98;11.23;;;;;;;;;;4793610;29;20112;-74
2021/12/20 00:15:54;;;;;;;18.25;12.57;;;;;;;;;;4799050;29;20133;-74
2021/12/20 00:18:22;;;;;;;16.98;10.82;;;;;;;;;;4798858;29;20114;-74
2021/12/20 00:20:49;;;;;;;15.38;11.57;;;;;;;;;;4787674;29;20564;-74
2021/12/20 00:23:17;;;;;;;19.35;12.38;;;;;;;;;;4799895;29;20099;-74
2021/12/20 00:25:48;;;;;;;18.75;12.90;;;;;;;;;;4794636;29;20070;-74
2021/12/20 00:28:19;;;;;;;17.90;12.07;;;;;;;;;;4800661;29;20444;-74
2021/12/20 00:30:47;;;;;;;20.63;12.23;;;;;;;;;;4794695;29;20461;-74
2021/12/20 00:33:15;;;;;;;19.60;12.13;;;;;;;;;;4799324;29;20039;-74
2021/12/20 00:35:43;;;;;;;17.17;12.05;;;;;;;;;;4798090;29;20055;-74
2021/12/20 00:40:56;;;;;;;19.55;13.00;;;;;;;;;;4794340;29;20047;-75
2021/12/20 00:43:24;;;;;;;19.17;12.70;;;;;;;;;;4798785;29;20431;-75
2021/12/20 00:45:51;;;;;;;15.45;9.80;;;;;;;;;;4800126;29;20129;-75
2021/12/20 00:48:18;;;;;;;17.52;12.65;;;;;;;;;;4813240;29;20074;-74
2021/12/20 00:50:46;;;;;;;16.73;12.05;;;;;;;;;;4797843;29;20047;-74
2021/12/20 00:53:13;;;;;;;22.42;13.05;;;;;;;;;;4799167;29;20042;-75
2021/12/20 00:55:41;;;;;;;16.60;10.85;;;;;;;;;;4806281;29;20043;-74
2021/12/20 00:58:08;;;;;;;21.27;13.10;;;;;;;;;;4800005;29;20129;-75
2021/12/20 01:00:37;;;;;;;17.35;11.52;;;;;;;;;;4808059;29;20047;-75
2021/12/20 01:03:06;;;;;;;17.55;12.48;;;;;;;;;;4799361;29;20509;-75
2021/12/20 01:05:34;;;;;;;20.15;12.77;;;;;;;;;;4801590;29;20115;-74
2021/12/20 01:08:04;;;;;;;17.23;11.65;;;;;;;;;;4798433;29;20047;-74
2021/12/20 01:10:32;;;;;;;18.80;12.95;;;;;;;;;;4799081;29;20925;-74
2021/12/20 01:13:02;;;;;;;19.75;12.32;;;;;;;;;;4801349;29;20081;-75
2021/12/20 01:15:32;;;;;;;17.25;11.63;;;;;;;;;;4798997;29;20058;-75
2021/12/20 01:18:00;;;;;;;18.45;11.50;;;;;;;;;;4800193;29;20039;-75
2021/12/20 01:20:28;;;;;;;17.90;11.50;;;;;;;;;;4800119;29;20248;-75
2021/12/20 01:22:55;;;;;;;14.60;9.95;;;;;;;;;;4774655;29;20058;-75
2021/12/20 01:25:24;;;;;;;18.13;11.75;;;;;;;;;;4797833;29;20090;-75
2021/12/20 01:27:51;;;;;;;19.30;12.25;;;;;;;;;;4783216;29;20067;-75
2021/12/20 01:30:21;;;;;;;20.33;11.63;;;;;;;;;;4797543;29;20054;-75
2021/12/20 01:32:48;;;;;;;18.30;11.93;;;;;;;;;;4800713;29;20077;-75
2021/12/20 01:35:16;;;;;;;18.42;11.50;;;;;;;;;;4795282;29;20135;-75
2021/12/20 01:37:44;;;;;;;17.48;11.75;;;;;;;;;;4796822;29;20071;-75
2021/12/20 01:40:13;;;;;;;18.63;11.38;;;;;;;;;;4797275;29;20074;-74
2021/12/20 01:42:41;;;;;;;13.55;8.50;;;;;;;;;;4799531;29;20051;-74
2021/12/20 01:45:16;;;;;;;16.35;11.48;;;;;;;;;;4797910;29;20053;-75
2021/12/20 01:47:47;;;;;;;20.60;12.70;;;;;;;;;;4794952;29;20512;-75
2021/12/20 01:50:22;;;;;;;16.98;11.65;;;;;;;;;;4794345;29;20053;-75
2021/12/20 01:52:49;;;;;;;17.10;11.68;;;;;;;;;;4797749;29;20145;-75
2021/12/20 01:55:21;;;;;;;18.55;11.85;;;;;;;;;;4803264;29;20582;-75
2021/12/20 01:57:49;;;;;;;13.52;9.55;;;;;;;;;;4800920;29;20464;-74
2021/12/20 02:00:18;;;;;;;19.85;11.25;;;;;;;;;;4802936;29;20138;-74
2021/12/20 02:02:53;;;;;;;14.82;10.52;;;;;;;;;;4818676;29;20061;-75
2021/12/20 02:05:26;;;;;;;17.60;11.15;;;;;;;;;;4817899;29;20500;-74
2021/12/20 02:08:01;;;;;;;14.10;9.63;;;;;;;;;;4824285;29;20073;-74
2021/12/20 02:10:29;;;;;;;12.45;9.27;;;;;;;;;;4835026;29;20073;-75
2021/12/20 02:12:57;;;;;;;16.00;11.23;;;;;;;;;;4813034;29;20054;-74
2021/12/20 02:15:24;;;;;;;13.52;9.00;;;;;;;;;;4810235;29;20142;-74
2021/12/20 02:17:52;;;;;;;16.15;10.82;;;;;;;;;;4824086;29;20201;-75
2021/12/20 02:20:29;;;;;;;13.50;8.88;;;;;;;;;;4825956;29;20536;-74
2021/12/20 02:22:57;;;;;;;15.20;11.13;;;;;;;;;;4826214;29;20398;-75
2021/12/20 02:25:25;;;;;;;19.08;11.60;;;;;;;;;;4814943;29;20070;-74
2021/12/20 02:27:53;;;;;;;16.17;10.63;;;;;;;;;;4824053;29;20045;-74
2021/12/20 02:38:32;;;;;;;19.17;10.93;;;;;;;;;;4804510;29;20046;-75
2021/12/20 02:41:09;;;;;;;14.25;9.70;;;;;;;;;;4804944;29;20042;-75
2021/12/20 02:43:40;;;;;;;17.05;10.35;;;;;;;;;;4803557;29;20070;-74
2021/12/20 02:49:09;;;;;;;17.85;10.30;;;;;;;;;;4800263;29;20039;-75
2021/12/20 02:51:37;;;;;;;17.63;11.38;;;;;;;;;;4802658;29;20038;-74
2021/12/20 02:54:06;;;;;;;20.02;11.57;;;;;;;;;;4802886;29;20496;-74
2021/12/20 02:56:33;;;;;;;20.80;11.57;;;;;;;;;;4805871;29;20058;-75
2021/12/20 02:59:01;;;;;;;21.17;13.23;;;;;;;;;;4803643;29;20082;-75
2021/12/20 03:01:29;;;;;;;18.77;11.70;;;;;;;;;;4797542;29;20055;-74
2021/12/20 03:03:57;;;;;;;18.10;10.88;;;;;;;;;;4799851;29;20067;-75
2021/12/20 03:06:30;;;;;;;17.65;11.13;;;;;;;;;;4799636;29;20050;-75
2021/12/20 03:08:58;;;;;;;14.05;10.45;;;;;;;;;;4803481;29;20050;-75
2021/12/20 03:11:27;;;;;;;19.17;12.40;;;;;;;;;;4806449;29;20488;-75
2021/12/20 03:14:06;;;;;;;18.80;11.27;;;;;;;;;;4802430;29;20124;-74
2021/12/20 03:16:34;;;;;;;19.65;12.15;;;;;;;;;;4800743;29;20126;-74
2021/12/20 03:19:02;;;;;;;17.10;11.40;;;;;;;;;;4809684;29;20307;-75
2021/12/20 03:21:30;;;;;;;19.52;11.65;;;;;;;;;;4799675;29;20046;-74
2021/12/20 03:23:58;;;;;;;20.27;11.43;;;;;;;;;;4804014;29;20086;-75
2021/12/20 03:26:25;;;;;;;16.45;10.73;;;;;;;;;;4802344;29;20038;-75
2021/12/20 03:28:53;;;;;;;19.88;12.43;;;;;;;;;;4803192;29;20089;-75
2021/12/20 03:31:20;;;;;;;17.85;11.52;;;;;;;;;;4800773;29;20069;-74
2021/12/20 03:33:48;;;;;;;24.27;13.18;;;;;;;;;;4801100;29;20138;-75
2021/12/20 03:36:15;;;;;;;20.08;12.77;;;;;;;;;;4800893;29;20051;-75
2021/12/20 03:38:42;;;;;;;16.85;11.90;;;;;;;;;;4801966;29;20051;-75
2021/12/20 03:41:10;;;;;;;18.65;11.80;;;;;;;;;;4801452;29;20137;-75
2021/12/20 03:43:38;;;;;;;15.73;11.07;;;;;;;;;;4801262;29;20099;-75
2021/12/20 03:46:06;;;;;;;17.80;11.57;;;;;;;;;;4800381;29;20472;-75
2021/12/20 03:48:34;;;;;;;17.85;11.70;;;;;;;;;;4818212;29;20273;-75
2021/12/20 03:51:02;;;;;;;14.77;9.80;;;;;;;;;;4812729;29;20051;-75
2021/12/20 03:53:30;;;;;;;17.13;11.25;;;;;;;;;;4799152;29;20055;-74
2021/12/20 03:55:58;;;;;;;16.08;10.73;;;;;;;;;;4799382;29;20404;-75
2021/12/20 03:58:27;;;;;;;19.58;11.35;;;;;;;;;;4800513;29;20082;-75
2021/12/20 04:00:58;;;;;;;21.98;12.45;;;;;;;;;;4802060;29;20371;-74
2021/12/20 04:03:29;;;;;;;17.00;10.77;;;;;;;;;;4804537;29;20134;-74
2021/12/20 04:05:57;;;;;;;18.90;11.20;;;;;;;;;;4800131;29;20046;-75
2021/12/20 04:08:24;;;;;;;15.63;9.88;;;;;;;;;;4802182;29;20051;-75
2021/12/20 04:10:52;;;;;;;16.85;10.82;;;;;;;;;;4798557;29;20142;-74
2021/12/20 04:13:19;;;;;;;15.90;10.30;;;;;;;;;;4801664;29;20100;-74
2021/12/20 04:15:47;;;;;;;14.75;10.32;;;;;;;;;;4798250;29;20362;-74
2021/12/20 04:18:14;;;;;;;17.83;11.48;;;;;;;;;;4800778;29;20096;-74
2021/12/20 04:20:42;;;;;;;14.88;9.82;;;;;;;;;;4802127;29;20567;-75
2021/12/20 04:23:09;;;;;;;15.75;10.27;;;;;;;;;;4800094;29;20081;-74
2021/12/20 04:25:36;;;;;;;16.88;10.90;;;;;;;;;;4797344;29;20093;-74
2021/12/20 04:28:04;;;;;;;15.30;10.68;;;;;;;;;;4800608;29;20042;-74
2021/12/20 04:30:32;;;;;;;19.52;11.25;;;;;;;;;;4798107;29;20082;-74
2021/12/20 04:33:00;;;;;;;19.83;11.52;;;;;;;;;;4801297;29;20074;-74
2021/12/20 04:35:27;;;;;;;17.20;11.50;;;;;;;;;;4803236;29;20050;-75
2021/12/20 04:37:57;;;;;;;17.63;11.80;;;;;;;;;;4798984;29;20051;-75
2021/12/20 04:40:25;;;;;;;16.98;11.02;;;;;;;;;;4798884;29;20145;-74
2021/12/20 04:42:53;;;;;;;18.80;11.68;;;;;;;;;;4801154;29;20053;-74
2021/12/20 04:45:21;;;;;;;18.10;11.50;;;;;;;;;;4805983;29;20513;-74
2021/12/20 04:47:48;;;;;;;19.23;12.15;;;;;;;;;;4801407;29;20149;-74
2021/12/20 04:50:16;;;;;;;20.20;12.48;;;;;;;;;;4803274;29;20097;-74
2021/12/20 04:52:43;;;;;;;21.05;12.07;;;;;;;;;;4799930;29;20078;-74
2021/12/20 04:55:12;;;;;;;20.13;12.60;;;;;;;;;;4801017;29;20129;-75
2021/12/20 04:57:40;;;;;;;17.17;11.15;;;;;;;;;;4799305;29;20121;-74
2021/12/20 05:00:09;;;;;;;16.55;10.95;;;;;;;;;;4798232;29;20518;-74
2021/12/20 05:02:36;;;;;;;14.82;10.15;;;;;;;;;;4804900;29;20046;-75
2021/12/20 05:05:04;;;;;;;15.15;10.50;;;;;;;;;;4801231;29;20045;-74
2021/12/20 05:07:31;;;;;;;15.73;10.65;;;;;;;;;;4804803;29;20465;-75
2021/12/20 05:10:01;;;;;;;15.95;10.27;;;;;;;;;;4800343;29;20039;-74
2021/12/20 05:12:29;;;;;;;17.95;11.10;;;;;;;;;;4804758;29;20050;-74
2021/12/20 05:14:56;;;;;;;16.13;11.00;;;;;;;;;;4797661;29;20131;-74
2021/12/20 05:17:24;;;;;;;15.48;10.60;;;;;;;;;;4802251;29;20142;-75
2021/12/20 05:19:51;;;;;;;20.00;11.43;;;;;;;;;;4799878;29;20058;-75
2021/12/20 05:22:19;;;;;;;13.75;9.68;;;;;;;;;;4799561;29;20467;-74
2021/12/20 05:24:46;;;;;;;17.63;11.02;;;;;;;;;;4801486;29;20051;-74
2021/12/20 05:27:13;;;;;;;18.33;11.48;;;;;;;;;;4801100;29;20062;-75
2021/12/20 05:29:41;;;;;;;13.93;9.93;;;;;;;;;;4802730;29;20120;-74
2021/12/20 05:32:09;;;;;;;15.27;9.68;;;;;;;;;;4801619;29;20129;-74
2021/12/20 05:34:36;;;;;;;14.85;9.63;;;;;;;;;;4803960;29;20082;-73
2021/12/20 05:37:05;;;;;;;14.10;9.65;;;;;;;;;;4809404;29;20142;-74
2021/12/20 05:39:32;;;;;;;15.85;9.77;;;;;;;;;;4801535;29;20581;-74
2021/12/20 05:42:00;;;;;;;16.08;9.52;;;;;;;;;;4807534;29;20415;-74
2021/12/20 05:44:27;;;;;;;13.25;8.98;;;;;;;;;;4816228;29;20471;-74
2021/12/20 05:46:54;;;;;;;14.63;9.32;;;;;;;;;;4803490;29;20523;-74
2021/12/20 05:49:22;;;;;;;12.27;9.00;;;;;;;;;;4800855;29;20738;-74
2021/12/20 05:51:54;;;;;;;15.40;11.02;;;;;;;;;;4804661;29;20047;-74
2021/12/20 05:54:21;;;;;;;14.90;8.93;;;;;;;;;;4800725;29;20182;-75
2021/12/20 05:56:49;;;;;;;11.68;8.20;;;;;;;;;;4803294;29;20141;-74
2021/12/20 05:59:16;;;;;;;12.45;8.65;;;;;;;;;;4800333;29;20137;-74
2021/12/20 06:01:43;;;;;;;11.45;8.27;;;;;;;;;;4803058;29;20059;-74
2021/12/20 06:04:11;;;;;;;12.18;8.00;;;;;;;;;;4802215;29;20049;-74
2021/12/20 06:06:38;;;;;;;14.35;8.73;;;;;;;;;;4801762;29;20043;-75
2021/12/20 06:09:06;;;;;;;16.38;8.82;;;;;;;;;;4812270;29;20042;-74
2021/12/20 06:11:33;;;;;;;12.15;8.13;;;;;;;;;;4803045;29;20043;-74
2021/12/20 06:14:00;;;;;;;12.20;8.75;;;;;;;;;;4806265;29;20206;-74
2021/12/20 06:16:28;;;;;;;16.20;10.48;;;;;;;;;;4803192;29;20109;-75
2021/12/20 06:18:55;;;;;;;14.77;9.43;;;;;;;;;;4804029;29;20114;-74
2021/12/20 06:21:23;;;;;;;18.08;10.65;;;;;;;;;;4816492;29;20495;-74
2021/12/20 06:23:50;;;;;;;13.93;9.45;;;;;;;;;;4800369;29;20049;-74
2021/12/20 06:26:18;;;;;;;13.70;9.75;;;;;;;;;;4803226;29;20162;-74
2021/12/20 06:28:45;;;;;;;13.27;9.05;;;;;;;;;;4796789;29;20575;-74
2021/12/20 06:31:13;;;;;;;15.43;9.77;;;;;;;;;;4802397;29;20047;-74
2021/12/20 06:33:40;;;;;;;13.50;9.63;;;;;;;;;;4800505;29;20107;-74
2021/12/20 06:36:08;;;;;;;14.07;10.13;;;;;;;;;;4801787;29;20050;-75
2021/12/20 06:38:42;;;;;;;15.98;9.18;;;;;;;;;;4804388;29;20055;-75
2021/12/20 06:41:09;;;;;;;20.15;11.30;;;;;;;;;;4800515;29;20051;-75
2021/12/20 06:43:37;;;;;;;16.63;10.88;;;;;;;;;;4788134;29;20055;-74
2021/12/20 06:46:04;;;;;;;19.27;14.00;;;;;;;;;;4797884;29;20500;-75
2021/12/20 06:48:31;;;;;;;14.98;10.30;;;;;;;;;;4800463;29;20047;-75
2021/12/20 06:50:59;;;;;;;16.85;10.45;;;;;;;;;;4796866;29;20063;-75
2021/12/20 06:53:27;;;;;;;15.63;10.07;;;;;;;;;;4786321;29;20380;-75
2021/12/20 06:55:55;;;;;;;16.63;11.35;;;;;;;;;;4789680;29;20051;-75
2021/12/20 06:58:23;;;;;;;15.43;10.07;;;;;;;;;;4800712;29;20137;-75
2021/12/20 07:00:51;;;;;;;14.75;10.10;;;;;;;;;;4799190;29;20162;-75
2021/12/20 07:03:19;;;;;;;18.60;10.27;;;;;;;;;;4800629;29;20424;-75
2021/12/20 07:05:47;;;;;;;14.02;9.27;;;;;;;;;;4795140;29;20046;-74
2021/12/20 07:08:15;;;;;;;17.05;10.30;;;;;;;;;;4795292;29;20696;-75
2021/12/20 07:10:43;;;;;;;13.77;9.25;;;;;;;;;;4791276;29;20043;-75
2021/12/20 07:13:10;;;;;;;15.35;9.60;;;;;;;;;;4801825;29;20129;-75
2021/12/20 07:15:38;;;;;;;17.75;10.68;;;;;;;;;;4793823;29;20476;-74
2021/12/20 07:18:05;;;;;;;18.27;11.18;;;;;;;;;;4815352;29;20083;-74
2021/12/20 07:20:33;;;;;;;12.90;8.73;;;;;;;;;;4799114;29;20123;-74
2021/12/20 07:23:01;;;;;;;18.25;10.73;;;;;;;;;;4804107;29;20051;-75
2021/12/20 07:25:28;;;;;;;13.68;9.95;;;;;;;;;;4800756;29;20080;-74
2021/12/20 07:27:56;;;;;;;15.95;9.90;;;;;;;;;;4799039;29;20038;-74
2021/12/20 07:30:23;;;;;;;16.83;10.27;;;;;;;;;;4800809;29;20315;-74
2021/12/20 07:32:51;;;;;;;16.42;9.35;;;;;;;;;;4788676;29;20507;-74
2021/12/20 07:35:20;;;;;;;15.15;10.10;;;;;;;;;;4796532;29;20192;-74
2021/12/20 07:37:48;;;;;;;15.57;9.13;;;;;;;;;;4794167;29;20071;-74
2021/12/20 07:40:15;;;;;;;15.70;9.70;;;;;;;;;;4808541;29;20100;-74
2021/12/20 07:42:43;;;;;;;15.15;9.57;;;;;;;;;;4797215;29;20478;-74
2021/12/20 07:45:10;;;;;;;12.98;9.52;;;;;;;;;;4796314;29;20043;-74
2021/12/20 07:47:47;;;;;;;16.65;8.57;;;;;;;;;;4802407;29;20049;-74
2021/12/20 07:50:15;;;;;;;13.15;8.23;;;;;;;;;;4798803;29;20054;-74
2021/12/20 07:52:43;;;;;;;12.40;7.68;;;;;;;;;;4799615;29;20059;-74
2021/12/20 07:55:11;;;;;;;14.88;9.38;;;;;;;;;;4799265;29;20130;-74
2021/12/20 07:57:38;;;;;;;12.25;7.65;;;;;;;;;;4801534;29;20047;-74
2021/12/20 08:00:06;;;;;;;12.55;7.53;;;;;;;;;;4796497;29;20046;-74
2021/12/20 08:02:39;;;;;;;10.13;7.63;;;;;;;;;;4811784;29;20142;-74
2021/12/20 08:05:07;;;;;;;12.10;7.68;;;;;;;;;;4798949;29;20043;-74
2021/12/20 08:07:34;;;;;;;10.07;7.38;;;;;;;;;;4814615;29;20116;-74
2021/12/20 08:10:01;;;;;;;9.05;6.85;;;;;;;;;;4799636;29;20147;-74
2021/12/20 08:12:29;;;;;;;9.35;6.22;;;;;;;;;;4806347;29;20095;-74
2021/12/20 08:14:56;;;;;;;9.90;6.53;;;;;;;;;;4799843;29;20110;-74
2021/12/20 08:17:23;;;;;;;8.65;6.07;;;;;;;;;;4800885;29;20051;-74
2021/12/20 08:19:51;;;;;;;9.30;6.25;;;;;;;;;;4808048;29;20298;-74
2021/12/20 08:22:23;;;;;;;10.40;6.97;;;;;;;;;;4801025;29;20141;-74
2021/12/20 08:24:51;;;;;;;10.70;5.88;;;;;;;;;;4803971;29;20133;-74
2021/12/20 08:27:19;;;;;;;9.00;6.45;;;;;;;;;;4802107;29;20047;-74
2021/12/20 08:29:46;;;;;;;9.55;6.22;;;;;;;;;;4798381;29;20049;-74
2021/12/20 08:32:14;;;;;;;10.40;7.70;;;;;;;;;;4800206;29;20046;-74
2021/12/20 08:34:41;;;;;;;11.40;7.20;;;;;;;;;;4796920;29;20130;-75
2021/12/20 08:37:09;;;;;;;10.77;7.38;;;;;;;;;;4798773;29;20042;-74
2021/12/20 08:39:36;;;;;;;8.75;6.38;;;;;;;;;;4794645;29;20516;-74
2021/12/20 08:42:04;;;;;;;9.93;6.20;;;;;;;;;;4810144;29;20602;-74
2021/12/20 08:44:33;;;;;;;8.77;6.30;;;;;;;;;;4804302;29;20074;-74
2021/12/20 08:47:00;;;;;;;12.90;6.03;;;;;;;;;;4814492;29;20055;-74
2021/12/20 08:49:35;;;;;;;10.55;6.70;;;;;;;;;;4802573;29;20540;-74
2021/12/20 08:52:16;;;;;;;11.57;6.30;;;;;;;;;;4810583;29;20051;-74
2021/12/20 08:54:43;;;;;;;8.23;5.97;;;;;;;;;;4801411;29;20060;-74
2021/12/20 08:57:11;;;;;;;6.45;5.45;;;;;;;;;;4805969;29;20388;-74
2021/12/20 08:59:38;;;;;;;12.13;5.55;;;;;;;;;;4799841;29;20058;-74
2021/12/20 09:02:07;;;;;;;6.68;5.60;;;;;;;;;;4799835;29;20150;-74
2021/12/20 09:04:36;;;;;;;7.80;6.10;;;;;;;;;;4814879;29;20050;-74
2021/12/20 09:07:03;;;;;;;5.78;4.80;;;;;;;;;;4798518;29;20084;-74
2021/12/20 09:09:37;;;;;;;6.88;5.28;;;;;;;;;;4806286;29;20054;-74
2021/12/20 09:12:06;;;;;;;9.80;6.00;;;;;;;;;;4798029;29;20054;-74
2021/12/20 09:14:34;;;;;;;8.32;5.10;;;;;;;;;;4798827;29;20046;-74
2021/12/20 09:17:02;;;;;;;6.00;5.18;;;;;;;;;;4800489;29;20146;-74
2021/12/20 09:19:29;;;;;;;8.60;5.25;;;;;;;;;;4805462;29;20051;-74
2021/12/20 09:21:56;;;;;;;7.18;4.68;;;;;;;;;;4794282;29;20120;-74
2021/12/20 09:24:24;;;;;;;5.10;3.97;;;;;;;;;;4797597;29;20047;-74
2021/12/20 09:26:51;;;;;;;7.40;4.85;;;;;;;;;;4795778;29;20075;-74
2021/12/20 09:29:19;;;;;;;5.30;4.47;;;;;;;;;;4801293;29;20051;-74
2021/12/20 09:31:46;;;;;;;7.43;5.32;;;;;;;;;;4803549;29;20047;-73
2021/12/20 09:34:14;;;;;;;9.52;6.03;;;;;;;;;;4803379;29;20074;-73
2021/12/20 09:36:42;;;;;;;7.47;5.10;;;;;;;;;;4796725;29;20111;-73
2021/12/20 09:39:11;;;;;;;6.25;4.65;;;;;;;;;;4796364;29;20420;-74
2021/12/20 09:44:10;;;;;;;7.10;4.53;;;;;;;;;;4795817;29;20138;-74
2021/12/20 09:46:38;;;;;;;6.50;4.57;;;;;;;;;;4817442;23;20058;-71
2021/12/20 09:49:07;;;;;;;6.18;4.70;;;;;;;;;;4816867;29;20401;-73
2021/12/20 09:51:35;;;;;;;5.22;4.00;;;;;;;;;;4826323;29;20106;-72
2021/12/20 09:54:03;;;;;;;6.97;4.90;;;;;;;;;;4815685;29;20050;-73
2021/12/20 09:56:32;;;;;;;4.78;3.35;;;;;;;;;;4818502;29;20400;-71
2021/12/20 09:59:00;;;;;;;6.10;5.28;;;;;;;;;;4813909;29;20050;-72
2021/12/20 10:01:28;;;;;;;4.68;4.18;;;;;;;;;;4815515;29;20057;-71
2021/12/20 10:03:56;;;;;;;4.72;4.28;;;;;;;;;;4816156;29;20038;-72
2021/12/20 10:06:25;;;;;;;4.57;3.40;;;;;;;;;;4801652;29;20252;-72
2021/12/20 10:08:55;;;;;;;3.60;2.95;;;;;;;;;;4813941;29;20042;-72
2021/12/20 10:11:29;;;;;;;4.78;3.40;;;;;;;;;;4814126;29;20042;-72
2021/12/20 10:14:05;;;;;;;2.78;2.58;;;;;;;;;;4803776;29;20058;-73
2021/12/20 10:16:34;;;;;;;3.40;2.35;;;;;;;;;;4820177;29;20111;-75
2021/12/20 10:19:03;;;;;;;2.58;1.83;;;;;;;;;;4824903;29;20142;-74
2021/12/20 10:21:34;;;;;;;2.67;1.92;;;;;;;;;;4827454;29;20142;-74
2021/12/20 10:24:01;;;;;;;2.55;1.60;;;;;;;;;;4817730;29;20129;-72
2021/12/20 10:26:37;;;;;;;2.55;2.15;;;;;;;;;;4820786;29;20047;-72
2021/12/20 10:29:16;;;;;;;2.67;1.73;;;;;;;;;;4813497;29;20078;-75
2021/12/20 10:31:43;;;;;;;3.70;1.40;;;;;;;;;;4830736;29;20099;-72
2021/12/20 10:34:11;;;;;;;3.45;1.55;;;;;;;;;;4820708;29;20450;-72
2021/12/20 10:36:49;;;;;;;2.13;1.50;;;;;;;;;;4825070;29;20479;-72
2021/12/20 10:39:16;;;;;;;4.03;3.65;;;;;;;;;;4829101;29;20094;-74
2021/12/20 10:41:50;;;;;;;1.80;1.65;;;;;;;;;;4815651;29;20046;-73
2021/12/20 10:44:20;;;;;;;2.85;2.13;;;;;;;;;;4819657;29;20799;-75
2021/12/20 10:46:52;;;;;;;2.65;2.17;;;;;;;;;;4816354;29;20043;-74
2021/12/20 10:49:25;;;;;;;2.00;1.80;;;;;;;;;;4827023;29;20582;-73
2021/12/20 10:51:52;;;;;;;7.25;4.47;;;;;;;;;;4830417;29;20042;-72
2021/12/20 10:54:22;;;;;;;3.80;3.20;;;;;;;;;;4830925;29;20077;-74
2021/12/20 10:56:53;;;;;;;8.88;5.00;;;;;;;;;;4828441;29;20047;-73
2021/12/20 10:59:25;;;;;;;8.70;3.75;;;;;;;;;;4829213;29;20062;-73
2021/12/20 11:04:59;;;;;;;4.88;1.75;;;;;;;;;;4824099;29;20133;-75
2021/12/20 11:10:05;;;;;;;5.53;1.77;;;;;;;;;;4815960;29;20039;-73
2021/12/20 11:12:33;;;;;;;6.60;1.90;;;;;;;;;;4823471;29;20050;-74
2021/12/20 11:15:03;;;;;;;5.55;2.70;;;;;;;;;;4820262;29;20322;-74
2021/12/20 11:17:30;;;;;;;6.68;2.65;;;;;;;;;;4813271;29;20065;-72
2021/12/20 11:19:58;;;;;;;5.88;2.58;;;;;;;;;;4829242;29;20200;-72
2021/12/20 11:22:26;;;;;;;7.78;2.47;;;;;;;;;;4819422;29;20084;-73
2021/12/20 11:24:54;;;;;;;8.10;2.80;;;;;;;;;;4820302;29;20160;-75
2021/12/20 11:27:30;;;;;;;8.05;2.75;;;;;;;;;;4822321;29;20042;-75
2021/12/20 11:30:07;;;;;;;5.22;2.20;;;;;;;;;;4813479;29;20038;-73
2021/12/20 11:32:35;;;;;;;7.63;2.53;;;;;;;;;;4817336;29;20130;-73
2021/12/20 11:35:02;;;;;;;6.85;2.15;;;;;;;;;;4824401;29;20038;-74
2021/12/20 11:37:30;;;;;;;2.55;2.13;;;;;;;;;;4818314;29;20050;-72
2021/12/20 11:39:59;;;;;;;1.83;1.73;;;;;;;;;;4823456;29;20050;-71
2021/12/20 11:42:27;;;;;;;4.38;2.40;;;;;;;;;;4820531;29;20181;-74
2021/12/20 11:44:56;;;;;;;6.28;2.65;;;;;;;;;;4820141;29;20726;-72
2021/12/20 11:47:43;;;;;;;2.72;2.08;;;;;;;;;;4800229;29;21027;-73
2021/12/20 11:50:12;;;;;;;3.13;2.20;;;;;;;;;;4812909;29;20183;-73
2021/12/20 11:52:41;;;;;;;5.30;1.73;;;;;;;;;;4809547;29;20423;-75
2021/12/20 11:55:14;;;;;;;2.40;1.77;;;;;;;;;;4804743;29;20046;-75
2021/12/20 11:57:44;;;;;;;4.10;2.10;;;;;;;;;;4812185;29;20058;-73
2021/12/20 12:00:19;;;;;;;4.43;2.00;;;;;;;;;;4814388;29;20137;-73
2021/12/20 12:02:48;;;;;;;4.78;2.08;;;;;;;;;;4810089;29;20138;-73
2021/12/20 12:05:18;;;;;;;8.40;1.83;;;;;;;;;;4804288;29;20046;-73
2021/12/20 12:07:47;;;;;;;3.67;1.70;;;;;;;;;;4813754;29;20482;-73
2021/12/20 12:10:18;;;;;;;7.28;3.92;;;;;;;;;;4813728;29;20115;-74
2021/12/20 12:12:47;;;;;;;6.70;2.35;;;;;;;;;;4816896;29;20523;-73
2021/12/20 12:15:20;;;;;;;8.65;2.60;;;;;;;;;;4818914;29;20081;-74
2021/12/20 12:18:04;;;;;;;4.57;1.80;;;;;;;;;;4815754;29;20058;-73
2021/12/20 12:20:37;;;;;;;4.93;1.65;;;;;;;;;;4815807;29;20504;-72
2021/12/20 12:23:10;;;;;;;5.15;1.52;;;;;;;;;;4818845;29;20046;-72
2021/12/20 12:25:40;;;;;;;2.95;1.98;;;;;;;;;;4817435;29;20098;-75
2021/12/20 12:28:08;;;;;;;7.38;2.08;;;;;;;;;;4816940;29;20047;-73
2021/12/20 12:30:36;;;;;;;2.88;1.60;;;;;;;;;;4810391;29;20083;-73
2021/12/20 12:33:03;;;;;;;7.72;1.58;;;;;;;;;;4817646;29;20066;-75
2021/12/20 12:35:43;;;;;;;4.40;1.48;;;;;;;;;;4816631;29;20051;-72
2021/12/20 12:38:21;;;;;;;6.65;1.80;;;;;;;;;;4811560;29;20564;-71
2021/12/20 12:40:51;;;;;;;6.35;2.15;;;;;;;;;;4821022;29;20054;-71
2021/12/20 12:43:26;;;;;;;6.18;2.00;;;;;;;;;;4814620;29;20050;-75
2021/12/20 12:45:53;;;;;;;4.07;2.85;;;;;;;;;;4815466;29;20038;-72
2021/12/20 12:48:34;;;;;;;5.45;1.63;;;;;;;;;;4815174;29;20468;-72
2021/12/20 12:51:25;;;;;;;7.28;1.60;;;;;;;;;;4817458;29;20046;-72
2021/12/20 12:53:54;;;;;;;9.07;1.77;;;;;;;;;;4814414;29;20099;-72
2021/12/20 12:56:28;;;;;;;9.32;1.90;;;;;;;;;;4815452;29;20060;-72
2021/12/20 12:59:19;;;;;;;4.13;2.28;;;;;;;;;;4815085;29;20617;-72
2021/12/20 13:01:57;;;;;;;5.13;2.08;;;;;;;;;;4815747;29;20053;-73
2021/12/20 13:04:58;;;;;;;4.85;1.65;;;;;;;;;;4810026;29;20046;-73
2021/12/20 13:07:32;;;;;;;4.65;1.20;;;;;;;;;;4811015;29;20046;-72
2021/12/20 13:10:03;;;;;;;1.25;1.00;;;;;;;;;;4812249;29;20046;-72
2021/12/20 13:12:43;;;;;;;5.13;1.92;;;;;;;;;;4813480;29;20066;-72
2021/12/20 13:17:43;;;;;;;12.63;1.42;;;;;;;;;;4814604;29;20650;-71
2021/12/20 13:20:21;;;;;;;2.88;1.40;;;;;;;;;;4817607;29;20074;-72
2021/12/20 13:22:57;;;;;;;1.30;1.20;;;;;;;;;;4819276;29;20051;-71
2021/12/20 13:25:31;;;;;;;3.55;1.50;;;;;;;;;;4819129;29;20082;-74
2021/12/20 13:27:59;;;;;;;3.30;1.48;;;;;;;;;;4817463;29;20057;-72
2021/12/20 13:30:46;;;;;;;4.00;1.63;;;;;;;;;;4818749;29;20125;-72
2021/12/20 13:33:14;;;;;;;6.20;1.38;;;;;;;;;;4819190;29;20145;-72
2021/12/20 13:35:43;;;;;;;3.08;1.63;;;;;;;;;;4819281;29;20082;-72
2021/12/20 13:38:13;;;;;;;6.40;1.75;;;;;;;;;;4834023;29;20069;-74
2021/12/20 13:40:41;;;;;;;5.15;1.70;;;;;;;;;;4834997;29;20415;-71
2021/12/20 13:43:12;;;;;;;3.17;1.80;;;;;;;;;;4829584;29;20065;-72
2021/12/20 13:45:39;;;;;;;4.07;1.30;;;;;;;;;;4815368;29;20077;-72
2021/12/20 13:48:08;;;;;;;3.42;1.45;;;;;;;;;;4822520;29;20068;-74
2021/12/20 13:50:35;;;;;;;2.63;1.48;;;;;;;;;;4822383;29;20085;-72
2021/12/20 13:53:03;;;;;;;3.15;1.75;;;;;;;;;;4822131;29;20253;-72
2021/12/20 13:55:30;;;;;;;5.97;1.50;;;;;;;;;;4822792;29;20073;-72
2021/12/20 13:58:00;;;;;;;4.20;1.25;;;;;;;;;;4822540;29;20112;-72
2021/12/20 14:00:28;;;;;;;2.63;1.40;;;;;;;;;;4821286;29;20129;-74
2021/12/20 14:02:55;;;;;;;7.63;1.70;;;;;;;;;;4836824;29;20500;-72
2021/12/20 14:05:24;;;;;;;8.30;1.98;;;;;;;;;;4838391;29;20046;-72
2021/12/20 14:07:53;;;;;;;2.03;1.17;;;;;;;;;;4822498;29;20054;-72
2021/12/20 14:10:22;;;;;;;2.40;1.23;;;;;;;;;;4820613;29;20074;-71
2021/12/20 14:12:58;;;;;;;2.75;1.45;;;;;;;;;;4819344;29;20041;-72
2021/12/20 14:15:28;;;;;;;4.90;1.48;;;;;;;;;;4818217;29;20099;-80
2021/12/20 14:18:05;;;;;;;3.33;1.33;;;;;;;;;;4818105;29;20042;-73
2021/12/20 14:20:37;;;;;;;4.03;1.77;;;;;;;;;;4821601;29;20050;-72
2021/12/20 14:23:10;;;;;;;4.43;1.60;;;;;;;;;;4821922;29;20046;-73
2021/12/20 14:25:39;;;;;;;4.70;1.20;;;;;;;;;;4829333;29;20038;-73
2021/12/20 14:28:06;;;;;;;5.65;1.45;;;;;;;;;;4821173;29;20046;-73
2021/12/20 14:30:44;;;;;;;3.03;1.85;;;;;;;;;;4822518;29;20213;-72
2021/12/20 14:33:25;;;;;;;4.38;2.22;;;;;;;;;;4820072;29;20066;-72
2021/12/20 14:36:09;;;;;;;7.47;2.28;;;;;;;;;;4821631;29;20499;-73
2021/12/20 14:38:38;;;;;;;4.47;1.88;;;;;;;;;;4822047;29;20070;-72
2021/12/20 14:41:11;;;;;;;3.05;1.70;;;;;;;;;;4825137;29;20058;-72
2021/12/20 14:43:41;;;;;;;4.85;2.10;;;;;;;;;;4837694;29;20058;-74
2021/12/20 14:46:27;;;;;;;3.65;2.38;;;;;;;;;;4828505;29;20377;-74
2021/12/20 14:49:11;;;;;;;5.05;2.45;;;;;;;;;;4819923;29;20043;-73
2021/12/20 14:51:38;;;;;;;4.88;2.20;;;;;;;;;;4814580;29;20068;-72
2021/12/20 14:54:06;;;;;;;4.72;2.10;;;;;;;;;;4821863;29;20046;-74
2021/12/20 14:56:35;;;;;;;4.68;1.85;;;;;;;;;;4823563;29;20069;-72
2021/12/20 14:59:02;;;;;;;7.47;2.10;;;;;;;;;;4819928;29;20082;-72
2021/12/20 15:01:30;;;;;;;8.43;2.17;;;;;;;;;;4825859;29;20142;-72
2021/12/20 15:03:59;;;;;;;9.10;2.75;;;;;;;;;;4827135;29;20412;-73
2021/12/20 15:06:37;;;;;;;5.53;2.15;;;;;;;;;;4819475;29;20099;-74
2021/12/20 15:09:05;;;;;;;4.82;2.13;;;;;;;;;;4805084;29;20073;-73